Inukjuak, Canada
Current Conditions -  °F | °C
As of 9:00 PM on Saturday 25 Oct 2014 (Local Time) from CYPH Reporting Station
Light Rain Light Rain  
Wind Chill: 32°   Ceiling: 6000
Heat Index: 39°   Visibility: 9mi
Dew Point: 37°   Wind: 12mph
Humidity: 93%   Direction: 110°ESE
Pressure: 29.42"   Gusts: NA
Location:  58.46°N, 78.12°W
Report Text: CYPH 260100Z AUTO 11010KT 9SM -RA OVC060 04/03 A2942 RMK SLP965
Loading
Personal Weather Stations






























Interactive Weather Map
Tropical Storm Tracking
New forecast layout! Learn more

10-Day Weather Forecast

Advertisements
Track Severe Weather on mobile